sensor_id;sensor_type;location;lat;lon;timestamp;P1;durP1;ratioP1;P2;durP2;ratioP2
74335;SDS011;62755;-33.398;-70.572;2023-11-19T00:01:06;20.67;;;10.20;;
74335;SDS011;62755;-33.398;-70.572;2023-11-19T00:03:34;25.55;;;11.65;;
74335;SDS011;62755;-33.398;-70.572;2023-11-19T00:06:06;25.33;;;9.70;;
74335;SDS011;62755;-33.398;-70.572;2023-11-19T00:08:37;14.20;;;7.10;;
74335;SDS011;62755;-33.398;-70.572;2023-11-19T00:11:06;14.00;;;7.65;;
74335;SDS011;62755;-33.398;-70.572;2023-11-19T00:13:36;14.90;;;7.20;;
74335;SDS011;62755;-33.398;-70.572;2023-11-19T00:16:07;17.50;;;7.63;;
74335;SDS011;62755;-33.398;-70.572;2023-11-19T00:18:38;26.50;;;7.90;;
74335;SDS011;62755;-33.398;-70.572;2023-11-19T00:21:09;14.80;;;7.13;;
74335;SDS011;62755;-33.398;-70.572;2023-11-19T00:23:38;17.75;;;8.95;;
74335;SDS011;62755;-33.398;-70.572;2023-11-19T00:26:08;19.23;;;7.50;;
74335;SDS011;62755;-33.398;-70.572;2023-11-19T00:28:38;33.17;;;8.50;;
74335;SDS011;62755;-33.398;-70.572;2023-11-19T00:31:09;24.13;;;8.70;;
74335;SDS011;62755;-33.398;-70.572;2023-11-19T00:33:38;16.27;;;8.70;;
74335;SDS011;62755;-33.398;-70.572;2023-11-19T00:36:09;16.00;;;8.27;;
74335;SDS011;62755;-33.398;-70.572;2023-11-19T00:38:39;23.55;;;7.97;;
74335;SDS011;62755;-33.398;-70.572;2023-11-19T00:41:08;21.77;;;7.25;;
74335;SDS011;62755;-33.398;-70.572;2023-11-19T00:43:38;22.60;;;7.65;;
74335;SDS011;62755;-33.398;-70.572;2023-11-19T00:46:07;21.05;;;7.95;;
74335;SDS011;62755;-33.398;-70.572;2023-11-19T00:48:37;17.90;;;7.53;;
74335;SDS011;62755;-33.398;-70.572;2023-11-19T00:51:06;15.80;;;7.85;;
74335;SDS011;62755;-33.398;-70.572;2023-11-19T00:53:40;21.40;;;7.28;;
74335;SDS011;62755;-33.398;-70.572;2023-11-19T00:56:11;21.40;;;7.25;;
74335;SDS011;62755;-33.398;-70.572;2023-11-19T00:58:41;19.80;;;8.55;;
74335;SDS011;62755;-33.398;-70.572;2023-11-19T01:01:11;24.58;;;9.40;;
74335;SDS011;62755;-33.398;-70.572;2023-11-19T01:03:42;24.20;;;8.32;;
74335;SDS011;62755;-33.398;-70.572;2023-11-19T01:06:13;18.17;;;8.43;;
74335;SDS011;62755;-33.398;-70.572;2023-11-19T01:08:43;18.35;;;8.65;;
74335;SDS011;62755;-33.398;-70.572;2023-11-19T01:11:19;21.58;;;8.07;;
74335;SDS011;62755;-33.398;-70.572;2023-11-19T01:13:49;20.00;;;8.98;;
74335;SDS011;62755;-33.398;-70.572;2023-11-19T01:16:18;23.65;;;10.30;;
74335;SDS011;62755;-33.398;-70.572;2023-11-19T01:18:48;22.48;;;9.52;;
74335;SDS011;62755;-33.398;-70.572;2023-11-19T01:21:20;20.25;;;7.75;;
74335;SDS011;62755;-33.398;-70.572;2023-11-19T01:23:49;19.15;;;8.95;;
74335;SDS011;62755;-33.398;-70.572;2023-11-19T01:26:19;22.63;;;11.85;;
74335;SDS011;62755;-33.398;-70.572;2023-11-19T01:28:48;33.30;;;16.10;;
74335;SDS011;62755;-33.398;-70.572;2023-11-19T01:31:18;27.95;;;12.25;;
74335;SDS011;62755;-33.398;-70.572;2023-11-19T01:33:48;32.08;;;13.85;;
74335;SDS011;62755;-33.398;-70.572;2023-11-19T01:36:19;23.55;;;11.35;;
74335;SDS011;62755;-33.398;-70.572;2023-11-19T01:38:49;35.47;;;14.52;;
74335;SDS011;62755;-33.398;-70.572;2023-11-19T01:41:18;44.70;;;11.93;;
74335;SDS011;62755;-33.398;-70.572;2023-11-19T01:43:48;36.25;;;16.73;;
74335;SDS011;62755;-33.398;-70.572;2023-11-19T01:46:17;37.05;;;16.35;;
74335;SDS011;62755;-33.398;-70.572;2023-11-19T01:48:47;36.17;;;22.15;;
74335;SDS011;62755;-33.398;-70.572;2023-11-19T01:51:20;47.28;;;23.67;;
74335;SDS011;62755;-33.398;-70.572;2023-11-19T01:53:50;44.40;;;23.83;;
74335;SDS011;62755;-33.398;-70.572;2023-11-19T01:56:20;41.85;;;18.15;;
74335;SDS011;62755;-33.398;-70.572;2023-11-19T01:58:50;26.65;;;13.57;;
74335;SDS011;62755;-33.398;-70.572;2023-11-19T02:01:21;25.67;;;12.73;;
74335;SDS011;62755;-33.398;-70.572;2023-11-19T02:03:51;29.75;;;11.32;;
74335;SDS011;62755;-33.398;-70.572;2023-11-19T02:06:22;28.25;;;12.20;;
74335;SDS011;62755;-33.398;-70.572;2023-11-19T02:08:52;25.23;;;10.82;;
74335;SDS011;62755;-33.398;-70.572;2023-11-19T02:11:22;19.65;;;9.02;;
74335;SDS011;62755;-33.398;-70.572;2023-11-19T02:13:55;28.25;;;11.27;;
74335;SDS011;62755;-33.398;-70.572;2023-11-19T02:16:25;30.08;;;12.63;;
74335;SDS011;62755;-33.398;-70.572;2023-11-19T02:18:54;27.92;;;12.73;;
74335;SDS011;62755;-33.398;-70.572;2023-11-19T02:21:25;26.27;;;12.77;;
74335;SDS011;62755;-33.398;-70.572;2023-11-19T02:23:55;26.25;;;13.98;;
74335;SDS011;62755;-33.398;-70.572;2023-11-19T02:26:25;25.20;;;10.75;;
74335;SDS011;62755;-33.398;-70.572;2023-11-19T02:29:03;21.70;;;10.35;;
74335;SDS011;62755;-33.398;-70.572;2023-11-19T02:31:33;25.70;;;9.52;;
74335;SDS011;62755;-33.398;-70.572;2023-11-19T02:34:03;23.42;;;10.82;;
74335;SDS011;62755;-33.398;-70.572;2023-11-19T02:36:32;24.25;;;10.35;;
74335;SDS011;62755;-33.398;-70.572;2023-11-19T02:39:02;18.60;;;9.27;;
74335;SDS011;62755;-33.398;-70.572;2023-11-19T02:41:36;23.17;;;9.90;;
74335;SDS011;62755;-33.398;-70.572;2023-11-19T02:44:07;26.92;;;9.68;;
74335;SDS011;62755;-33.398;-70.572;2023-11-19T02:46:37;22.00;;;9.77;;
74335;SDS011;62755;-33.398;-70.572;2023-11-19T02:49:08;21.05;;;10.05;;
74335;SDS011;62755;-33.398;-70.572;2023-11-19T02:51:37;21.92;;;10.63;;
74335;SDS011;62755;-33.398;-70.572;2023-11-19T02:54:07;22.83;;;10.38;;
74335;SDS011;62755;-33.398;-70.572;2023-11-19T02:56:36;20.58;;;10.98;;
74335;SDS011;62755;-33.398;-70.572;2023-11-19T02:59:07;23.48;;;11.52;;
74335;SDS011;62755;-33.398;-70.572;2023-11-19T03:01:52;31.15;;;11.32;;
74335;SDS011;62755;-33.398;-70.572;2023-11-19T03:04:22;24.02;;;10.43;;
74335;SDS011;62755;-33.398;-70.572;2023-11-19T03:06:51;22.90;;;9.68;;
74335;SDS011;62755;-33.398;-70.572;2023-11-19T03:09:21;23.27;;;11.23;;
74335;SDS011;62755;-33.398;-70.572;2023-11-19T03:11:50;24.63;;;11.52;;
74335;SDS011;62755;-33.398;-70.572;2023-11-19T03:14:25;26.42;;;10.77;;
74335;SDS011;62755;-33.398;-70.572;2023-11-19T03:17:02;28.00;;;11.45;;
74335;SDS011;62755;-33.398;-70.572;2023-11-19T03:19:32;24.40;;;11.25;;
74335;SDS011;62755;-33.398;-70.572;2023-11-19T03:22:01;26.13;;;11.05;;
74335;SDS011;62755;-33.398;-70.572;2023-11-19T03:24:31;29.83;;;10.00;;
74335;SDS011;62755;-33.398;-70.572;2023-11-19T03:27:00;26.60;;;11.07;;
74335;SDS011;62755;-33.398;-70.572;2023-11-19T03:29:31;20.48;;;9.57;;
74335;SDS011;62755;-33.398;-70.572;2023-11-19T03:32:01;21.15;;;9.52;;
74335;SDS011;62755;-33.398;-70.572;2023-11-19T03:34:30;17.23;;;9.82;;
74335;SDS011;62755;-33.398;-70.572;2023-11-19T03:37:00;19.88;;;9.52;;
74335;SDS011;62755;-33.398;-70.572;2023-11-19T03:39:30;23.48;;;10.02;;
74335;SDS011;62755;-33.398;-70.572;2023-11-19T03:41:59;19.25;;;9.55;;
74335;SDS011;62755;-33.398;-70.572;2023-11-19T03:44:31;17.05;;;9.20;;
74335;SDS011;62755;-33.398;-70.572;2023-11-19T03:47:00;20.58;;;9.75;;
74335;SDS011;62755;-33.398;-70.572;2023-11-19T03:49:30;20.35;;;10.13;;
74335;SDS011;62755;-33.398;-70.572;2023-11-19T03:51:59;21.55;;;10.00;;
74335;SDS011;62755;-33.398;-70.572;2023-11-19T03:54:28;20.98;;;9.77;;
74335;SDS011;62755;-33.398;-70.572;2023-11-19T03:56:58;23.17;;;10.18;;
74335;SDS011;62755;-33.398;-70.572;2023-11-19T03:59:31;19.85;;;9.88;;
74335;SDS011;62755;-33.398;-70.572;2023-11-19T04:02:00;34.28;;;11.00;;
74335;SDS011;62755;-33.398;-70.572;2023-11-19T04:04:30;20.73;;;10.95;;
74335;SDS011;62755;-33.398;-70.572;2023-11-19T04:06:59;21.90;;;10.07;;
74335;SDS011;62755;-33.398;-70.572;2023-11-19T04:09:34;22.65;;;10.40;;
74335;SDS011;62755;-33.398;-70.572;2023-11-19T04:12:05;21.25;;;10.82;;
74335;SDS011;62755;-33.398;-70.572;2023-11-19T04:14:38;24.55;;;10.02;;
74335;SDS011;62755;-33.398;-70.572;2023-11-19T04:17:07;28.98;;;10.15;;
74335;SDS011;62755;-33.398;-70.572;2023-11-19T04:19:37;25.55;;;10.07;;
74335;SDS011;62755;-33.398;-70.572;2023-11-19T04:22:07;20.52;;;8.07;;
74335;SDS011;62755;-33.398;-70.572;2023-11-19T04:24:40;18.85;;;8.25;;
74335;SDS011;62755;-33.398;-70.572;2023-11-19T04:27:10;15.50;;;8.55;;
74335;SDS011;62755;-33.398;-70.572;2023-11-19T04:29:41;25.98;;;9.00;;
74335;SDS011;62755;-33.398;-70.572;2023-11-19T04:32:11;24.90;;;10.38;;
74335;SDS011;62755;-33.398;-70.572;2023-11-19T04:34:41;21.02;;;10.65;;
74335;SDS011;62755;-33.398;-70.572;2023-11-19T04:37:10;22.10;;;9.75;;
74335;SDS011;62755;-33.398;-70.572;2023-11-19T04:39:40;21.77;;;10.32;;
74335;SDS011;62755;-33.398;-70.572;2023-11-19T04:42:09;21.40;;;10.85;;
74335;SDS011;62755;-33.398;-70.572;2023-11-19T04:44:38;22.67;;;11.73;;
74335;SDS011;62755;-33.398;-70.572;2023-11-19T04:47:10;20.75;;;10.73;;
74335;SDS011;62755;-33.398;-70.572;2023-11-19T04:49:40;22.27;;;10.55;;
74335;SDS011;62755;-33.398;-70.572;2023-11-19T04:52:10;16.20;;;9.75;;
74335;SDS011;62755;-33.398;-70.572;2023-11-19T04:54:43;20.30;;;10.25;;
74335;SDS011;62755;-33.398;-70.572;2023-11-19T04:57:12;19.10;;;10.88;;
74335;SDS011;62755;-33.398;-70.572;2023-11-19T04:59:43;26.08;;;11.27;;
74335;SDS011;62755;-33.398;-70.572;2023-11-19T05:02:13;24.60;;;11.32;;
74335;SDS011;62755;-33.398;-70.572;2023-11-19T05:04:42;19.98;;;11.52;;
74335;SDS011;62755;-33.398;-70.572;2023-11-19T05:07:12;17.58;;;10.73;;
74335;SDS011;62755;-33.398;-70.572;2023-11-19T05:09:42;20.58;;;10.40;;
74335;SDS011;62755;-33.398;-70.572;2023-11-19T05:12:11;16.83;;;8.48;;
74335;SDS011;62755;-33.398;-70.572;2023-11-19T05:14:41;17.15;;;9.02;;
74335;SDS011;62755;-33.398;-70.572;2023-11-19T05:17:15;20.35;;;8.57;;
74335;SDS011;62755;-33.398;-70.572;2023-11-19T05:19:45;23.27;;;9.63;;
74335;SDS011;62755;-33.398;-70.572;2023-11-19T05:22:15;18.85;;;9.32;;
74335;SDS011;62755;-33.398;-70.572;2023-11-19T05:24:46;17.27;;;8.63;;
74335;SDS011;62755;-33.398;-70.572;2023-11-19T05:27:16;18.70;;;9.50;;
74335;SDS011;62755;-33.398;-70.572;2023-11-19T05:29:47;24.33;;;9.90;;
74335;SDS011;62755;-33.398;-70.572;2023-11-19T05:32:16;26.63;;;12.45;;
74335;SDS011;62755;-33.398;-70.572;2023-11-19T05:34:46;21.33;;;12.48;;
74335;SDS011;62755;-33.398;-70.572;2023-11-19T05:37:15;20.33;;;10.75;;
74335;SDS011;62755;-33.398;-70.572;2023-11-19T05:39:45;18.55;;;10.55;;
74335;SDS011;62755;-33.398;-70.572;2023-11-19T05:42:14;23.65;;;11.57;;
74335;SDS011;62755;-33.398;-70.572;2023-11-19T05:44:43;20.40;;;10.25;;
74335;SDS011;62755;-33.398;-70.572;2023-11-19T05:47:15;17.67;;;9.13;;
74335;SDS011;62755;-33.398;-70.572;2023-11-19T05:49:44;21.05;;;9.75;;
74335;SDS011;62755;-33.398;-70.572;2023-11-19T05:52:14;14.02;;;8.70;;
74335;SDS011;62755;-33.398;-70.572;2023-11-19T05:54:43;21.02;;;9.32;;
74335;SDS011;62755;-33.398;-70.572;2023-11-19T05:57:17;23.80;;;9.43;;
74335;SDS011;62755;-33.398;-70.572;2023-11-19T05:59:51;23.65;;;10.25;;
74335;SDS011;62755;-33.398;-70.572;2023-11-19T06:02:22;19.80;;;9.85;;
74335;SDS011;62755;-33.398;-70.572;2023-11-19T06:04:53;18.35;;;9.45;;
74335;SDS011;62755;-33.398;-70.572;2023-11-19T06:07:22;20.75;;;8.93;;
74335;SDS011;62755;-33.398;-70.572;2023-11-19T06:09:51;20.63;;;10.30;;
74335;SDS011;62755;-33.398;-70.572;2023-11-19T06:12:21;21.40;;;9.60;;
74335;SDS011;62755;-33.398;-70.572;2023-11-19T06:14:50;22.67;;;9.20;;
74335;SDS011;62755;-33.398;-70.572;2023-11-19T06:17:20;18.77;;;8.23;;
74335;SDS011;62755;-33.398;-70.572;2023-11-19T06:19:51;23.27;;;9.48;;
74335;SDS011;62755;-33.398;-70.572;2023-11-19T06:22:20;24.73;;;10.00;;
74335;SDS011;62755;-33.398;-70.572;2023-11-19T06:24:49;16.38;;;8.68;;
74335;SDS011;62755;-33.398;-70.572;2023-11-19T06:27:19;15.85;;;8.80;;
74335;SDS011;62755;-33.398;-70.572;2023-11-19T06:29:49;16.95;;;8.95;;
74335;SDS011;62755;-33.398;-70.572;2023-11-19T06:32:19;16.92;;;9.18;;
74335;SDS011;62755;-33.398;-70.572;2023-11-19T06:34:50;21.67;;;9.35;;
74335;SDS011;62755;-33.398;-70.572;2023-11-19T06:37:19;19.80;;;8.90;;
74335;SDS011;62755;-33.398;-70.572;2023-11-19T06:39:49;16.65;;;9.25;;
74335;SDS011;62755;-33.398;-70.572;2023-11-19T06:42:18;19.83;;;9.05;;
74335;SDS011;62755;-33.398;-70.572;2023-11-19T06:44:48;15.15;;;9.35;;
74335;SDS011;62755;-33.398;-70.572;2023-11-19T06:47:17;17.27;;;9.52;;
74335;SDS011;62755;-33.398;-70.572;2023-11-19T06:49:46;18.33;;;9.05;;
74335;SDS011;62755;-33.398;-70.572;2023-11-19T06:52:18;25.52;;;9.43;;
74335;SDS011;62755;-33.398;-70.572;2023-11-19T06:54:47;16.45;;;9.27;;
74335;SDS011;62755;-33.398;-70.572;2023-11-19T06:57:16;14.10;;;8.40;;
74335;SDS011;62755;-33.398;-70.572;2023-11-19T06:59:46;19.42;;;9.15;;
74335;SDS011;62755;-33.398;-70.572;2023-11-19T07:02:15;20.30;;;9.80;;
74335;SDS011;62755;-33.398;-70.572;2023-11-19T07:04:45;18.60;;;10.32;;
74335;SDS011;62755;-33.398;-70.572;2023-11-19T07:07:14;19.80;;;9.07;;
74335;SDS011;62755;-33.398;-70.572;2023-11-19T07:09:46;21.40;;;8.90;;
74335;SDS011;62755;-33.398;-70.572;2023-11-19T07:12:15;22.67;;;9.48;;
74335;SDS011;62755;-33.398;-70.572;2023-11-19T07:14:44;17.73;;;8.73;;
74335;SDS011;62755;-33.398;-70.572;2023-11-19T07:17:14;19.17;;;9.32;;
74335;SDS011;62755;-33.398;-70.572;2023-11-19T07:19:43;16.20;;;9.13;;
74335;SDS011;62755;-33.398;-70.572;2023-11-19T07:22:13;18.40;;;8.57;;
74335;SDS011;62755;-33.398;-70.572;2023-11-19T07:24:45;17.48;;;8.65;;
74335;SDS011;62755;-33.398;-70.572;2023-11-19T07:27:15;19.23;;;8.82;;
74335;SDS011;62755;-33.398;-70.572;2023-11-19T07:29:44;16.98;;;9.30;;
74335;SDS011;62755;-33.398;-70.572;2023-11-19T07:32:14;18.08;;;8.30;;
74335;SDS011;62755;-33.398;-70.572;2023-11-19T07:34:44;20.17;;;10.13;;
74335;SDS011;62755;-33.398;-70.572;2023-11-19T07:37:13;20.30;;;9.73;;
74335;SDS011;62755;-33.398;-70.572;2023-11-19T07:39:46;19.35;;;9.35;;
74335;SDS011;62755;-33.398;-70.572;2023-11-19T07:42:16;20.77;;;9.38;;
74335;SDS011;62755;-33.398;-70.572;2023-11-19T07:44:45;16.88;;;8.75;;
74335;SDS011;62755;-33.398;-70.572;2023-11-19T07:47:15;15.27;;;7.90;;
74335;SDS011;62755;-33.398;-70.572;2023-11-19T07:49:44;20.65;;;7.43;;
74335;SDS011;62755;-33.398;-70.572;2023-11-19T07:52:14;21.13;;;9.50;;
74335;SDS011;62755;-33.398;-70.572;2023-11-19T07:54:43;18.02;;;10.32;;
74335;SDS011;62755;-33.398;-70.572;2023-11-19T07:57:14;19.23;;;9.73;;
74335;SDS011;62755;-33.398;-70.572;2023-11-19T07:59:44;17.13;;;9.95;;
74335;SDS011;62755;-33.398;-70.572;2023-11-19T08:02:13;22.40;;;8.55;;
74335;SDS011;62755;-33.398;-70.572;2023-11-19T08:04:42;25.90;;;9.60;;
74335;SDS011;62755;-33.398;-70.572;2023-11-19T08:07:12;15.70;;;9.02;;
74335;SDS011;62755;-33.398;-70.572;2023-11-19T08:09:42;20.65;;;9.90;;
74335;SDS011;62755;-33.398;-70.572;2023-11-19T08:12:13;19.23;;;10.30;;
74335;SDS011;62755;-33.398;-70.572;2023-11-19T08:14:43;28.15;;;9.80;;
74335;SDS011;62755;-33.398;-70.572;2023-11-19T08:17:12;19.20;;;10.35;;
74335;SDS011;62755;-33.398;-70.572;2023-11-19T08:19:42;17.83;;;8.60;;
74335;SDS011;62755;-33.398;-70.572;2023-11-19T08:22:11;16.52;;;9.05;;
74335;SDS011;62755;-33.398;-70.572;2023-11-19T08:24:41;21.33;;;9.05;;
74335;SDS011;62755;-33.398;-70.572;2023-11-19T08:27:10;20.38;;;8.60;;
74335;SDS011;62755;-33.398;-70.572;2023-11-19T08:29:41;19.73;;;9.63;;
74335;SDS011;62755;-33.398;-70.572;2023-11-19T08:32:11;27.55;;;10.02;;
74335;SDS011;62755;-33.398;-70.572;2023-11-19T08:34:41;20.65;;;10.25;;
74335;SDS011;62755;-33.398;-70.572;2023-11-19T08:37:10;23.90;;;9.27;;
74335;SDS011;62755;-33.398;-70.572;2023-11-19T08:39:40;18.02;;;8.93;;
74335;SDS011;62755;-33.398;-70.572;2023-11-19T08:42:09;21.17;;;9.75;;
74335;SDS011;62755;-33.398;-70.572;2023-11-19T08:44:40;16.55;;;9.27;;
74335;SDS011;62755;-33.398;-70.572;2023-11-19T08:47:12;17.77;;;9.95;;
74335;SDS011;62755;-33.398;-70.572;2023-11-19T08:49:42;13.93;;;8.65;;
74335;SDS011;62755;-33.398;-70.572;2023-11-19T08:52:11;23.00;;;9.43;;
74335;SDS011;62755;-33.398;-70.572;2023-11-19T08:54:42;21.55;;;9.20;;
74335;SDS011;62755;-33.398;-70.572;2023-11-19T08:57:12;21.23;;;9.82;;
74335;SDS011;62755;-33.398;-70.572;2023-11-19T08:59:43;21.17;;;9.75;;
74335;SDS011;62755;-33.398;-70.572;2023-11-19T09:02:13;21.75;;;9.38;;
74335;SDS011;62755;-33.398;-70.572;2023-11-19T09:04:42;21.23;;;9.85;;
74335;SDS011;62755;-33.398;-70.572;2023-11-19T09:07:11;19.17;;;9.52;;
74335;SDS011;62755;-33.398;-70.572;2023-11-19T09:09:41;22.00;;;9.20;;
74335;SDS011;62755;-33.398;-70.572;2023-11-19T09:12:10;20.05;;;9.98;;
74335;SDS011;62755;-33.398;-70.572;2023-11-19T09:14:40;24.05;;;12.38;;
74335;SDS011;62755;-33.398;-70.572;2023-11-19T09:17:11;18.95;;;10.20;;
74335;SDS011;62755;-33.398;-70.572;2023-11-19T09:19:41;16.50;;;8.25;;
74335;SDS011;62755;-33.398;-70.572;2023-11-19T09:22:11;18.40;;;9.07;;
74335;SDS011;62755;-33.398;-70.572;2023-11-19T09:24:41;20.63;;;8.50;;
74335;SDS011;62755;-33.398;-70.572;2023-11-19T09:27:11;18.20;;;9.18;;
74335;SDS011;62755;-33.398;-70.572;2023-11-19T09:29:40;24.23;;;10.35;;
74335;SDS011;62755;-33.398;-70.572;2023-11-19T09:32:13;22.23;;;11.18;;
74335;SDS011;62755;-33.398;-70.572;2023-11-19T09:34:43;19.65;;;9.38;;
74335;SDS011;62755;-33.398;-70.572;2023-11-19T09:37:12;22.95;;;9.70;;
74335;SDS011;62755;-33.398;-70.572;2023-11-19T09:39:42;21.83;;;10.25;;
74335;SDS011;62755;-33.398;-70.572;2023-11-19T09:42:11;23.88;;;9.40;;
74335;SDS011;62755;-33.398;-70.572;2023-11-19T09:44:41;20.70;;;9.88;;
74335;SDS011;62755;-33.398;-70.572;2023-11-19T09:47:13;21.42;;;9.55;;
74335;SDS011;62755;-33.398;-70.572;2023-11-19T09:49:45;21.30;;;10.57;;
74335;SDS011;62755;-33.398;-70.572;2023-11-19T09:52:14;20.45;;;10.32;;
74335;SDS011;62755;-33.398;-70.572;2023-11-19T09:54:43;21.95;;;9.00;;
74335;SDS011;62755;-33.398;-70.572;2023-11-19T09:57:13;18.10;;;8.45;;
74335;SDS011;62755;-33.398;-70.572;2023-11-19T09:59:45;18.77;;;9.82;;
74335;SDS011;62755;-33.398;-70.572;2023-11-19T10:02:17;22.75;;;8.75;;
74335;SDS011;62755;-33.398;-70.572;2023-11-19T10:04:47;15.27;;;8.38;;
74335;SDS011;62755;-33.398;-70.572;2023-11-19T10:07:19;17.55;;;8.07;;
74335;SDS011;62755;-33.398;-70.572;2023-11-19T10:09:48;21.35;;;8.80;;
74335;SDS011;62755;-33.398;-70.572;2023-11-19T10:12:18;18.73;;;8.63;;
74335;SDS011;62755;-33.398;-70.572;2023-11-19T10:14:47;16.48;;;8.82;;
74335;SDS011;62755;-33.398;-70.572;2023-11-19T10:17:19;17.60;;;9.40;;
74335;SDS011;62755;-33.398;-70.572;2023-11-19T10:19:48;17.13;;;9.48;;
74335;SDS011;62755;-33.398;-70.572;2023-11-19T10:22:18;26.40;;;10.23;;
74335;SDS011;62755;-33.398;-70.572;2023-11-19T10:24:47;19.38;;;9.80;;
74335;SDS011;62755;-33.398;-70.572;2023-11-19T10:27:16;20.10;;;10.07;;
74335;SDS011;62755;-33.398;-70.572;2023-11-19T10:29:48;27.48;;;10.45;;
74335;SDS011;62755;-33.398;-70.572;2023-11-19T10:32:20;20.27;;;10.02;;
74335;SDS011;62755;-33.398;-70.572;2023-11-19T10:34:49;20.55;;;10.20;;
74335;SDS011;62755;-33.398;-70.572;2023-11-19T10:37:28;18.95;;;9.73;;
74335;SDS011;62755;-33.398;-70.572;2023-11-19T10:39:58;19.65;;;10.25;;
74335;SDS011;62755;-33.398;-70.572;2023-11-19T10:42:27;24.67;;;9.85;;
74335;SDS011;62755;-33.398;-70.572;2023-11-19T10:44:56;16.05;;;8.57;;
74335;SDS011;62755;-33.398;-70.572;2023-11-19T10:47:28;20.65;;;9.18;;
74335;SDS011;62755;-33.398;-70.572;2023-11-19T10:49:58;22.70;;;9.05;;
74335;SDS011;62755;-33.398;-70.572;2023-11-19T10:52:28;19.33;;;8.75;;
74335;SDS011;62755;-33.398;-70.572;2023-11-19T10:54:57;14.38;;;6.60;;
74335;SDS011;62755;-33.398;-70.572;2023-11-19T10:57:31;14.55;;;7.72;;
74335;SDS011;62755;-33.398;-70.572;2023-11-19T11:00:05;14.73;;;7.38;;
74335;SDS011;62755;-33.398;-70.572;2023-11-19T11:02:40;17.02;;;7.90;;
74335;SDS011;62755;-33.398;-70.572;2023-11-19T11:05:12;16.80;;;6.88;;
74335;SDS011;62755;-33.398;-70.572;2023-11-19T11:07:42;14.43;;;8.05;;
74335;SDS011;62755;-33.398;-70.572;2023-11-19T11:10:13;18.95;;;8.00;;
74335;SDS011;62755;-33.398;-70.572;2023-11-19T11:12:44;21.67;;;8.70;;
74335;SDS011;62755;-33.398;-70.572;2023-11-19T11:15:16;15.70;;;7.93;;
74335;SDS011;62755;-33.398;-70.572;2023-11-19T11:17:49;21.65;;;9.52;;
74335;SDS011;62755;-33.398;-70.572;2023-11-19T11:20:21;14.27;;;7.75;;
74335;SDS011;62755;-33.398;-70.572;2023-11-19T11:22:53;16.27;;;8.73;;
74335;SDS011;62755;-33.398;-70.572;2023-11-19T11:25:35;15.55;;;7.60;;
74335;SDS011;62755;-33.398;-70.572;2023-11-19T11:28:21;15.73;;;7.78;;
74335;SDS011;62755;-33.398;-70.572;2023-11-19T11:31:06;22.30;;;9.38;;
74335;SDS011;62755;-33.398;-70.572;2023-11-19T11:33:59;16.45;;;7.70;;
74335;SDS011;62755;-33.398;-70.572;2023-11-19T11:36:38;15.77;;;8.07;;
74335;SDS011;62755;-33.398;-70.572;2023-11-19T11:39:16;16.95;;;7.63;;
74335;SDS011;62755;-33.398;-70.572;2023-11-19T11:42:04;17.50;;;7.90;;
74335;SDS011;62755;-33.398;-70.572;2023-11-19T11:45:03;17.92;;;8.52;;
74335;SDS011;62755;-33.398;-70.572;2023-11-19T11:50:51;17.80;;;8.45;;
74335;SDS011;62755;-33.398;-70.572;2023-11-19T11:53:22;21.55;;;10.00;;
74335;SDS011;62755;-33.398;-70.572;2023-11-19T11:55:53;17.63;;;9.63;;
74335;SDS011;62755;-33.398;-70.572;2023-11-19T11:58:30;22.67;;;8.95;;
74335;SDS011;62755;-33.398;-70.572;2023-11-19T12:01:04;24.50;;;9.83;;
74335;SDS011;62755;-33.398;-70.572;2023-11-19T12:03:34;17.50;;;9.57;;
74335;SDS011;62755;-33.398;-70.572;2023-11-19T12:06:07;18.35;;;8.82;;
74335;SDS011;62755;-33.398;-70.572;2023-11-19T12:08:39;18.15;;;9.13;;
74335;SDS011;62755;-33.398;-70.572;2023-11-19T12:11:09;20.58;;;9.40;;
74335;SDS011;62755;-33.398;-70.572;2023-11-19T12:16:28;22.98;;;9.60;;
74335;SDS011;62755;-33.398;-70.572;2023-11-19T12:19:06;15.82;;;9.15;;
74335;SDS011;62755;-33.398;-70.572;2023-11-19T12:21:46;23.30;;;11.02;;
74335;SDS011;62755;-33.398;-70.572;2023-11-19T12:24:16;18.45;;;8.70;;
74335;SDS011;62755;-33.398;-70.572;2023-11-19T12:26:47;22.92;;;9.23;;
74335;SDS011;62755;-33.398;-70.572;2023-11-19T12:29:18;24.20;;;10.57;;
74335;SDS011;62755;-33.398;-70.572;2023-11-19T12:31:53;20.95;;;10.63;;
74335;SDS011;62755;-33.398;-70.572;2023-11-19T12:34:23;27.10;;;11.57;;
74335;SDS011;62755;-33.398;-70.572;2023-11-19T12:36:54;27.17;;;11.63;;
74335;SDS011;62755;-33.398;-70.572;2023-11-19T12:39:24;25.20;;;11.10;;
74335;SDS011;62755;-33.398;-70.572;2023-11-19T12:41:53;26.75;;;11.38;;
74335;SDS011;62755;-33.398;-70.572;2023-11-19T12:44:25;25.30;;;11.40;;
74335;SDS011;62755;-33.398;-70.572;2023-11-19T12:47:00;30.17;;;12.02;;
74335;SDS011;62755;-33.398;-70.572;2023-11-19T12:49:34;24.63;;;11.50;;
74335;SDS011;62755;-33.398;-70.572;2023-11-19T12:52:13;22.50;;;12.13;;
74335;SDS011;62755;-33.398;-70.572;2023-11-19T12:54:43;22.83;;;11.75;;
74335;SDS011;62755;-33.398;-70.572;2023-11-19T12:57:12;22.33;;;12.15;;
74335;SDS011;62755;-33.398;-70.572;2023-11-19T12:59:41;30.83;;;12.60;;
74335;SDS011;62755;-33.398;-70.572;2023-11-19T13:02:11;27.98;;;13.27;;
74335;SDS011;62755;-33.398;-70.572;2023-11-19T13:04:40;22.80;;;12.05;;
74335;SDS011;62755;-33.398;-70.572;2023-11-19T13:07:10;25.92;;;12.60;;
74335;SDS011;62755;-33.398;-70.572;2023-11-19T13:09:41;21.02;;;12.00;;
74335;SDS011;62755;-33.398;-70.572;2023-11-19T13:12:13;27.83;;;13.02;;
74335;SDS011;62755;-33.398;-70.572;2023-11-19T13:14:43;26.90;;;13.98;;
74335;SDS011;62755;-33.398;-70.572;2023-11-19T13:17:13;25.95;;;13.68;;
74335;SDS011;62755;-33.398;-70.572;2023-11-19T13:19:43;25.25;;;13.25;;
74335;SDS011;62755;-33.398;-70.572;2023-11-19T13:22:18;29.77;;;14.10;;
74335;SDS011;62755;-33.398;-70.572;2023-11-19T13:24:47;28.55;;;14.00;;
74335;SDS011;62755;-33.398;-70.572;2023-11-19T13:27:17;29.38;;;15.60;;
74335;SDS011;62755;-33.398;-70.572;2023-11-19T13:29:46;36.08;;;16.33;;
74335;SDS011;62755;-33.398;-70.572;2023-11-19T13:32:16;31.48;;;16.10;;
74335;SDS011;62755;-33.398;-70.572;2023-11-19T13:34:45;27.15;;;15.00;;
74335;SDS011;62755;-33.398;-70.572;2023-11-19T13:37:15;27.60;;;14.10;;
74335;SDS011;62755;-33.398;-70.572;2023-11-19T13:39:46;28.20;;;15.52;;
74335;SDS011;62755;-33.398;-70.572;2023-11-19T13:42:15;32.17;;;15.68;;
74335;SDS011;62755;-33.398;-70.572;2023-11-19T13:44:46;33.28;;;15.98;;
74335;SDS011;62755;-33.398;-70.572;2023-11-19T13:47:15;29.90;;;16.10;;
74335;SDS011;62755;-33.398;-70.572;2023-11-19T13:49:45;34.90;;;17.60;;
74335;SDS011;62755;-33.398;-70.572;2023-11-19T13:52:14;28.92;;;16.92;;
74335;SDS011;62755;-33.398;-70.572;2023-11-19T13:54:45;29.70;;;16.77;;
74335;SDS011;62755;-33.398;-70.572;2023-11-19T13:57:15;33.20;;;18.35;;
74335;SDS011;62755;-33.398;-70.572;2023-11-19T13:59:44;36.97;;;16.75;;
74335;SDS011;62755;-33.398;-70.572;2023-11-19T14:02:13;31.80;;;18.85;;
74335;SDS011;62755;-33.398;-70.572;2023-11-19T14:04:43;35.85;;;19.20;;
74335;SDS011;62755;-33.398;-70.572;2023-11-19T14:07:12;32.78;;;19.35;;
74335;SDS011;62755;-33.398;-70.572;2023-11-19T14:09:42;36.85;;;19.15;;
74335;SDS011;62755;-33.398;-70.572;2023-11-19T14:12:13;42.20;;;20.38;;
74335;SDS011;62755;-33.398;-70.572;2023-11-19T14:14:42;38.17;;;17.98;;
74335;SDS011;62755;-33.398;-70.572;2023-11-19T14:17:12;36.58;;;20.17;;